Time;durP1;ratioP1;P1;durP2;ratioP2;P2;SDS_P1;SDS_P2;PMS_P1;PMS_P2;Temp;Humidity;BMP_temperature;BMP_pressure;BME280_temperature;BME280_humidity;BME280_pressure;Samples;Min_cycle;Max_cycle;Signal;HPM_P1;HPM_P2
2022/07/15 00:00:14;;;;;;;9.40;1.98;;;18.50;97.10;;;;;;7343174;19;107551;-82
2022/07/15 00:02:41;;;;;;;7.38;1.95;;;18.40;97.20;;;;;;7339158;19;108533;-82
2022/07/15 00:05:09;;;;;;;8.00;2.05;;;18.30;97.30;;;;;;7336844;19;107904;-81
2022/07/15 00:07:37;;;;;;;9.70;2.08;;;18.30;97.40;;;;;;7342597;19;107896;-81
2022/07/15 00:10:14;;;;;;;5.93;1.80;;;18.20;97.50;;;;;;7343859;19;108631;-96
2022/07/15 00:12:52;;;;;;;6.65;1.70;;;18.20;97.80;;;;;;7346890;19;107361;-94
2022/07/15 00:15:22;;;;;;;9.18;2.60;;;18.10;97.90;;;;;;7349616;19;109472;-96
2022/07/15 00:17:50;;;;;;;6.80;1.92;;;18.00;98.10;;;;;;7346359;19;107694;-95
2022/07/15 00:20:23;;;;;;;7.80;1.90;;;18.00;98.20;;;;;;7345699;19;106503;-95
2022/07/15 00:22:51;;;;;;;6.68;2.10;;;17.90;98.30;;;;;;7347785;19;107042;-95
2022/07/15 00:25:19;;;;;;;7.10;2.00;;;17.90;98.20;;;;;;7345047;19;109316;-95
2022/07/15 00:28:05;;;;;;;5.65;1.88;;;17.80;98.30;;;;;;7337705;19;107168;-82
2022/07/15 00:30:38;;;;;;;9.10;2.10;;;17.80;98.60;;;;;;7341694;19;108553;-81
2022/07/15 00:33:05;;;;;;;6.25;2.15;;;17.80;98.60;;;;;;7337692;19;108124;-83
2022/07/15 00:35:33;;;;;;;8.13;2.40;;;17.80;98.80;;;;;;7341376;19;108475;-82
2022/07/15 00:38:01;;;;;;;7.97;2.30;;;17.70;98.90;;;;;;7338870;19;108745;-80
2022/07/15 00:40:29;;;;;;;7.97;2.20;;;17.60;99.10;;;;;;7343312;19;108464;-82
2022/07/15 00:42:56;;;;;;;5.47;2.20;;;17.60;99.10;;;;;;7339895;19;110843;-82
2022/07/15 00:45:24;;;;;;;4.78;1.88;;;17.60;99.20;;;;;;7341973;19;108872;-82
2022/07/15 00:47:54;;;;;;;6.22;1.98;;;17.60;99.30;;;;;;7342991;19;108233;-82
2022/07/15 00:50:24;;;;;;;6.88;1.88;;;17.50;99.20;;;;;;7342214;19;108548;-81
2022/07/15 00:52:56;;;;;;;8.70;2.13;;;17.50;99.30;;;;;;7347337;19;109140;-82
2022/07/15 00:55:24;;;;;;;11.00;2.38;;;17.50;99.40;;;;;;7339821;19;108185;-82
2022/07/15 00:57:56;;;;;;;5.13;2.05;;;17.50;99.50;;;;;;7340956;19;111068;-82
2022/07/15 01:00:23;;;;;;;8.70;2.30;;;17.40;99.50;;;;;;7341375;19;111644;-82
2022/07/15 01:02:53;;;;;;;9.63;2.55;;;17.30;99.60;;;;;;7341191;19;108677;-82
2022/07/15 01:05:21;;;;;;;6.40;2.13;;;17.30;99.70;;;;;;7338919;19;108984;-82
2022/07/15 01:07:49;;;;;;;18.08;2.67;;;17.20;99.70;;;;;;7339536;19;108257;-83
2022/07/15 01:10:18;;;;;;;8.18;2.80;;;17.20;99.70;;;;;;7340549;19;107205;-79
2022/07/15 01:12:47;;;;;;;6.93;2.28;;;17.20;99.80;;;;;;7341762;19;109605;-81
2022/07/15 01:15:16;;;;;;;5.70;2.15;;;17.10;99.90;;;;;;7344404;19;107936;-81
2022/07/15 01:17:44;;;;;;;7.05;2.40;;;17.10;99.90;;;;;;7341183;19;109094;-80
2022/07/15 01:20:13;;;;;;;8.32;2.30;;;17.10;99.90;;;;;;7340335;19;109258;-80
2022/07/15 01:22:40;;;;;;;6.30;2.38;;;17.10;99.90;;;;;;7340206;19;111382;-80
2022/07/15 01:25:08;;;;;;;5.50;2.00;;;17.00;99.90;;;;;;7340112;19;108873;-79
2022/07/15 01:27:35;;;;;;;7.25;2.40;;;17.00;99.90;;;;;;7338983;19;110914;-82
2022/07/15 01:30:03;;;;;;;6.72;2.22;;;16.90;99.90;;;;;;7339611;19;107574;-81
2022/07/15 01:32:30;;;;;;;6.78;2.35;;;16.90;99.90;;;;;;7336568;19;108934;-80
2022/07/15 01:34:57;;;;;;;8.38;2.22;;;16.90;99.90;;;;;;7344593;19;107912;-81
2022/07/15 01:37:25;;;;;;;6.18;2.42;;;16.80;99.90;;;;;;7340933;19;109271;-81
2022/07/15 01:39:52;;;;;;;7.07;2.53;;;16.80;99.90;;;;;;7341106;19;108422;-81
2022/07/15 01:42:19;;;;;;;6.43;2.30;;;16.80;99.90;;;;;;7341115;19;107347;-81
2022/07/15 01:44:47;;;;;;;6.07;2.30;;;16.70;99.90;;;;;;7347885;19;109242;-80
2022/07/15 01:47:14;;;;;;;5.97;2.03;;;16.70;99.90;;;;;;7346083;19;111204;-80
2022/07/15 01:49:41;;;;;;;5.68;2.20;;;16.70;99.90;;;;;;7346524;19;108593;-80
2022/07/15 01:52:09;;;;;;;5.47;2.28;;;16.70;99.90;;;;;;7343978;19;108180;-81
2022/07/15 01:54:36;;;;;;;6.57;2.05;;;16.70;99.90;;;;;;7345761;19;108003;-81
2022/07/15 01:57:04;;;;;;;5.78;2.28;;;16.60;99.90;;;;;;7353464;19;108247;-81
2022/07/15 01:59:31;;;;;;;5.85;2.53;;;16.50;99.90;;;;;;7345758;19;108431;-80
2022/07/15 02:01:59;;;;;;;5.90;2.13;;;16.50;99.90;;;;;;7347904;19;107504;-80
2022/07/15 02:04:26;;;;;;;12.90;2.80;;;16.40;99.90;;;;;;7347317;19;108988;-81
2022/07/15 02:06:53;;;;;;;5.88;2.42;;;16.30;99.90;;;;;;7347212;19;108125;-80
2022/07/15 02:09:21;;;;;;;4.13;2.38;;;16.20;99.90;;;;;;7346024;19;108507;-80
2022/07/15 02:11:48;;;;;;;11.13;3.40;;;16.00;99.90;;;;;;7343527;19;109012;-81
2022/07/15 02:14:15;;;;;;;13.93;2.38;;;15.80;99.90;;;;;;7344778;19;107926;-81
2022/07/15 02:16:42;;;;;;;14.50;2.28;;;15.60;99.90;;;;;;7344608;19;107302;-81
2022/07/15 02:19:09;;;;;;;9.13;2.30;;;15.50;99.90;;;;;;7351895;19;109036;-80
2022/07/15 02:21:37;;;;;;;8.93;2.22;;;15.50;99.90;;;;;;7346142;19;110767;-80
2022/07/15 02:24:04;;;;;;;9.93;2.30;;;15.50;99.90;;;;;;7345930;19;107891;-80
2022/07/15 02:26:32;;;;;;;10.30;2.28;;;15.60;99.90;;;;;;7343564;19;108437;-81
2022/07/15 02:29:00;;;;;;;4.35;1.83;;;15.60;99.90;;;;;;7345932;19;108291;-80
2022/07/15 02:31:27;;;;;;;8.25;2.08;;;15.60;99.90;;;;;;7345402;19;109725;-80
2022/07/15 02:33:54;;;;;;;4.55;2.20;;;15.70;99.90;;;;;;7344936;19;108255;-81
2022/07/15 02:36:21;;;;;;;6.40;2.40;;;15.60;99.90;;;;;;7342953;19;110944;-81
2022/07/15 02:38:49;;;;;;;5.47;2.40;;;15.60;99.90;;;;;;7345130;19;107867;-81
2022/07/15 02:41:16;;;;;;;6.00;2.30;;;15.60;99.90;;;;;;7348660;19;107198;-80
2022/07/15 02:43:44;;;;;;;5.43;2.47;;;15.60;99.90;;;;;;7344939;19;110639;-80
2022/07/15 02:46:12;;;;;;;4.57;2.35;;;15.60;99.90;;;;;;7342758;19;108284;-80
2022/07/15 02:48:47;;;;;;;6.28;3.03;;;15.60;99.90;;;;;;7341569;19;107668;-81
2022/07/15 02:51:14;;;;;;;5.63;2.65;;;15.50;99.90;;;;;;7345023;19;108891;-80
2022/07/15 02:53:42;;;;;;;5.65;2.40;;;15.40;99.90;;;;;;7343813;19;108794;-82
2022/07/15 02:56:09;;;;;;;4.43;2.30;;;15.40;99.90;;;;;;7344053;19;108909;-80
2022/07/15 02:58:36;;;;;;;6.35;1.90;;;15.40;99.90;;;;;;7344403;19;108925;-81
2022/07/15 03:01:03;;;;;;;6.13;2.53;;;15.30;99.90;;;;;;7344555;19;107899;-80
2022/07/15 03:03:30;;;;;;;7.10;2.78;;;15.30;99.90;;;;;;7350038;19;108373;-81
2022/07/15 03:05:58;;;;;;;6.68;2.70;;;15.30;99.90;;;;;;7341719;19;109809;-79
2022/07/15 03:08:25;;;;;;;5.97;2.80;;;15.20;99.90;;;;;;7343058;19;107297;-78
2022/07/15 03:10:52;;;;;;;7.10;2.88;;;15.00;99.90;;;;;;7343471;19;110266;-79
2022/07/15 03:13:19;;;;;;;5.72;2.70;;;14.80;99.90;;;;;;7343142;19;107551;-79
2022/07/15 03:15:46;;;;;;;9.60;2.83;;;14.60;99.90;;;;;;7342237;19;108704;-78
2022/07/15 03:18:13;;;;;;;8.05;2.65;;;14.60;99.90;;;;;;7343786;19;108974;-78
2022/07/15 03:20:41;;;;;;;16.98;3.08;;;14.50;99.90;;;;;;7344881;19;107972;-78
2022/07/15 03:23:14;;;;;;;5.07;2.95;;;14.50;99.90;;;;;;7344739;19;110180;-79
2022/07/15 03:25:41;;;;;;;5.53;2.95;;;14.40;99.90;;;;;;7348367;19;109224;-80
2022/07/15 03:28:09;;;;;;;5.28;3.00;;;14.20;99.90;;;;;;7341108;19;107639;-79
2022/07/15 03:30:36;;;;;;;8.98;3.40;;;14.20;99.90;;;;;;7342264;19;107889;-79
2022/07/15 03:33:05;;;;;;;11.27;3.38;;;14.10;99.90;;;;;;7341189;19;108376;-79
2022/07/15 03:35:32;;;;;;;12.05;2.80;;;14.10;99.90;;;;;;7341940;19;108099;-78
2022/07/15 03:37:59;;;;;;;5.10;3.05;;;14.10;99.90;;;;;;7341560;19;109083;-78
2022/07/15 03:40:27;;;;;;;6.18;3.05;;;14.10;99.90;;;;;;7344433;19;111030;-78
2022/07/15 03:42:54;;;;;;;5.20;3.10;;;14.10;99.90;;;;;;7343372;19;108214;-78
2022/07/15 03:45:21;;;;;;;8.05;3.00;;;14.10;99.90;;;;;;7349849;19;108848;-78
2022/07/15 03:47:48;;;;;;;6.60;2.85;;;14.10;99.90;;;;;;7342046;19;108248;-78
2022/07/15 03:50:15;;;;;;;9.07;2.92;;;14.10;99.90;;;;;;7341944;19;108843;-79
2022/07/15 03:52:42;;;;;;;6.50;3.40;;;14.10;99.90;;;;;;7341566;19;107118;-79
2022/07/15 03:55:11;;;;;;;9.57;3.35;;;14.10;99.90;;;;;;7342137;19;109397;-78
2022/07/15 03:57:39;;;;;;;10.48;3.45;;;14.00;99.90;;;;;;7342063;19;110769;-78
2022/07/15 04:00:06;;;;;;;12.80;3.28;;;13.90;99.90;;;;;;7340739;19;107327;-78
2022/07/15 04:02:33;;;;;;;4.85;2.92;;;13.90;99.90;;;;;;7340828;19;108355;-78
2022/07/15 04:05:00;;;;;;;10.98;3.22;;;13.80;99.90;;;;;;7339275;19;109288;-81
2022/07/15 04:07:28;;;;;;;6.47;3.33;;;13.70;99.90;;;;;;7344810;19;108406;-79
2022/07/15 04:09:55;;;;;;;7.00;3.58;;;13.70;99.90;;;;;;7339619;19;109218;-78
2022/07/15 04:12:21;;;;;;;;;;;13.70;99.90;;;;;;7340968;19;107828;-78
2022/07/15 04:14:48;;;;;;;9.02;4.03;;;13.70;99.90;;;;;;7344921;19;110339;-78
2022/07/15 04:17:15;;;;;;;7.00;3.35;;;13.70;99.90;;;;;;7340682;19;108434;-78
2022/07/15 04:19:42;;;;;;;;;;;13.80;99.90;;;;;;7343844;19;108292;-79
2022/07/15 04:22:09;;;;;;;7.65;3.58;;;13.80;99.90;;;;;;7347019;19;107824;-78
2022/07/15 04:24:36;;;;;;;11.45;3.65;;;13.80;99.90;;;;;;7341032;19;109041;-79
2022/07/15 04:27:04;;;;;;;9.68;3.75;;;13.90;99.90;;;;;;7342003;19;108126;-78
2022/07/15 04:29:31;;;;;;;10.90;3.53;;;13.90;99.90;;;;;;7348550;19;107454;-78
2022/07/15 04:31:58;;;;;;;8.90;3.65;;;14.00;99.90;;;;;;7341765;19;108355;-78
2022/07/15 04:34:25;;;;;;;8.38;3.45;;;14.00;99.90;;;;;;7343051;19;108543;-78
2022/07/15 04:36:52;;;;;;;10.38;3.38;;;14.10;99.90;;;;;;7342124;19;109031;-78
2022/07/15 04:39:19;;;;;;;9.18;3.13;;;14.10;99.90;;;;;;7342400;19;107855;-78
2022/07/15 04:41:46;;;;;;;7.75;3.10;;;14.20;99.90;;;;;;7341439;19;112040;-78
2022/07/15 04:44:13;;;;;;;6.65;3.45;;;14.30;99.90;;;;;;7342574;19;109227;-79
2022/07/15 04:46:40;;;;;;;9.10;3.40;;;14.40;99.90;;;;;;7342091;19;107227;-78
2022/07/15 04:51:53;;;;;;;9.07;3.03;;;14.60;99.90;;;;;;7347012;19;109047;-84
2022/07/15 04:54:20;;;;;;;6.68;3.00;;;14.70;99.90;;;;;;7342329;19;108374;-85
2022/07/15 04:56:47;;;;;;;9.57;3.13;;;14.80;99.90;;;;;;7340491;19;109172;-83
2022/07/15 04:59:14;;;;;;;10.73;3.22;;;15.00;99.90;;;;;;7342219;19;108090;-85
2022/07/15 05:01:41;;;;;;;11.30;3.80;;;15.10;99.90;;;;;;7340976;19;108209;-85
2022/07/15 05:04:08;;;;;;;7.93;3.38;;;15.20;99.90;;;;;;7341344;19;109270;-84
2022/07/15 05:06:36;;;;;;;8.48;3.50;;;15.30;99.90;;;;;;7341840;19;107972;-84
2022/07/15 05:09:03;;;;;;;9.25;3.28;;;15.50;99.90;;;;;;7342108;19;108412;-84
2022/07/15 05:11:31;;;;;;;8.20;3.40;;;15.50;99.90;;;;;;7341207;19;109161;-85
2022/07/15 05:14:05;;;;;;;7.00;3.53;;;15.50;99.90;;;;;;7344246;19;107698;-84
2022/07/15 05:16:32;;;;;;;8.82;3.33;;;15.50;99.90;;;;;;7340554;19;108377;-87
2022/07/15 05:18:59;;;;;;;4.88;3.17;;;15.40;99.90;;;;;;7345812;19;107438;-85
2022/07/15 05:21:27;;;;;;;13.13;4.10;;;15.40;99.90;;;;;;7346701;19;108350;-84
2022/07/15 05:23:55;;;;;;;11.30;3.33;;;15.40;99.90;;;;;;7346560;19;109315;-84
2022/07/15 05:26:42;;;;;;;9.98;3.30;;;15.50;99.90;;;;;;7346252;19;109528;-83
2022/07/15 05:29:11;;;;;;;5.80;3.08;;;15.60;99.90;;;;;;7347378;19;108235;-83
2022/07/15 05:31:38;;;;;;;7.65;3.17;;;15.80;99.90;;;;;;7345526;19;110498;-85
2022/07/15 05:34:06;;;;;;;6.90;2.90;;;15.90;99.90;;;;;;7344970;19;110740;-84
2022/07/15 05:36:34;;;;;;;9.35;3.08;;;16.00;99.90;;;;;;7353205;19;108209;-85
2022/07/15 05:39:01;;;;;;;8.02;2.85;;;16.20;99.90;;;;;;7347934;19;107999;-84
2022/07/15 05:41:28;;;;;;;7.68;2.75;;;16.30;99.90;;;;;;7346523;19;108586;-85
2022/07/15 05:43:55;;;;;;;7.03;2.45;;;16.40;99.90;;;;;;7348593;19;109116;-80
2022/07/15 05:46:22;;;;;;;9.27;2.33;;;16.60;99.90;;;;;;7348045;19;107982;-79
2022/07/15 05:48:49;;;;;;;8.13;2.35;;;16.70;99.90;;;;;;7348348;19;112190;-79
2022/07/15 05:51:16;;;;;;;14.50;2.13;;;16.80;99.90;;;;;;7347456;19;107915;-80
2022/07/15 05:53:44;;;;;;;8.15;1.92;;;16.90;99.90;;;;;;7345992;19;107928;-79
2022/07/15 05:56:11;;;;;;;10.20;1.70;;;17.00;99.90;;;;;;7353808;19;107313;-80
2022/07/15 05:58:41;;;;;;;6.65;1.63;;;17.10;99.90;;;;;;7348074;19;108427;-82
2022/07/15 06:01:08;;;;;;;9.30;1.60;;;17.30;99.90;;;;;;7348411;19;109821;-80
2022/07/15 06:03:35;;;;;;;10.38;1.48;;;17.40;99.90;;;;;;7344789;19;109231;-81
2022/07/15 06:06:04;;;;;;;6.85;1.42;;;17.50;99.90;;;;;;7347504;19;108028;-80
2022/07/15 06:08:32;;;;;;;10.45;1.50;;;17.60;99.90;;;;;;7349121;19;108213;-81
2022/07/15 06:10:59;;;;;;;8.55;1.58;;;17.70;99.90;;;;;;7346747;19;109324;-82
2022/07/15 06:13:26;;;;;;;6.93;1.20;;;17.80;99.90;;;;;;7346966;19;109063;-80
2022/07/15 06:15:54;;;;;;;8.77;1.70;;;17.80;99.90;;;;;;7346842;19;107464;-81
2022/07/15 06:18:21;;;;;;;11.27;1.63;;;17.90;99.90;;;;;;7353280;19;108863;-80
2022/07/15 06:20:48;;;;;;;7.32;1.27;;;18.00;99.90;;;;;;7348154;19;108574;-80
2022/07/15 06:23:16;;;;;;;6.15;1.38;;;18.10;99.90;;;;;;7347026;19;109470;-81
2022/07/15 06:25:43;;;;;;;6.15;1.40;;;18.10;99.90;;;;;;7347923;19;107941;-80
2022/07/15 06:28:10;;;;;;;9.30;1.15;;;18.20;99.90;;;;;;7343758;19;108131;-80
2022/07/15 06:30:37;;;;;;;6.30;1.30;;;18.20;99.90;;;;;;7345909;19;109510;-80
2022/07/15 06:33:04;;;;;;;9.40;1.83;;;18.20;99.90;;;;;;7346150;19;109179;-81
2022/07/15 06:35:31;;;;;;;9.27;1.50;;;18.20;99.90;;;;;;7347966;19;108145;-80
2022/07/15 06:37:58;;;;;;;8.52;1.15;;;18.40;99.90;;;;;;7345782;19;109364;-80
2022/07/15 06:40:25;;;;;;;9.23;1.33;;;18.50;99.90;;;;;;7352801;19;108292;-81
2022/07/15 06:42:52;;;;;;;6.65;1.20;;;18.50;99.90;;;;;;7346018;19;109574;-81
2022/07/15 06:45:19;;;;;;;7.72;1.33;;;18.60;99.90;;;;;;7345658;19;107914;-80
2022/07/15 06:47:46;;;;;;;9.10;1.65;;;18.50;99.90;;;;;;7346555;19;111588;-80
2022/07/15 06:50:13;;;;;;;9.70;1.10;;;18.50;99.90;;;;;;7346500;19;108983;-82
2022/07/15 06:52:41;;;;;;;5.88;1.13;;;18.60;99.90;;;;;;7346432;19;107965;-81
2022/07/15 06:55:09;;;;;;;10.27;0.88;;;18.60;99.90;;;;;;7346551;19;108536;-81
2022/07/15 06:57:35;;;;;;;5.85;0.85;;;18.70;99.90;;;;;;7346132;19;111524;-81
2022/07/15 07:00:04;;;;;;;3.78;0.70;;;18.70;99.90;;;;;;7346099;19;107922;-82
2022/07/15 07:02:32;;;;;;;5.45;1.00;;;18.80;99.90;;;;;;7350235;19;108582;-82
2022/07/15 07:04:59;;;;;;;6.18;0.95;;;18.90;99.90;;;;;;7345730;19;108052;-82
2022/07/15 07:07:27;;;;;;;9.23;1.45;;;19.00;99.90;;;;;;7344166;19;108185;-80
2022/07/15 07:09:54;;;;;;;7.82;1.10;;;19.10;99.90;;;;;;7345687;19;110905;-81
2022/07/15 07:12:22;;;;;;;4.75;0.80;;;19.20;99.90;;;;;;7345290;19;108163;-81
2022/07/15 07:14:49;;;;;;;7.47;0.85;;;19.20;99.90;;;;;;7342894;19;108109;-80
2022/07/15 07:17:16;;;;;;;5.55;0.93;;;19.30;99.70;;;;;;7344445;19;108916;-81
2022/07/15 07:19:43;;;;;;;6.32;0.90;;;19.40;99.50;;;;;;7344352;19;108300;-81
2022/07/15 07:22:10;;;;;;;5.68;0.85;;;19.50;99.00;;;;;;7345889;19;108884;-81
2022/07/15 07:24:37;;;;;;;4.15;0.70;;;19.40;98.80;;;;;;7348662;19;109170;-81
2022/07/15 07:27:05;;;;;;;6.40;0.90;;;19.40;99.20;;;;;;7344253;19;108038;-82
2022/07/15 07:29:33;;;;;;;8.10;1.05;;;19.50;98.70;;;;;;7345016;19;109281;-83
2022/07/15 07:32:00;;;;;;;4.07;0.80;;;19.40;98.60;;;;;;7343855;19;111381;-81
2022/07/15 07:34:27;;;;;;;6.50;0.98;;;19.40;98.70;;;;;;7343181;19;108318;-82
2022/07/15 07:36:54;;;;;;;5.03;1.10;;;19.30;98.70;;;;;;7345272;19;112041;-82
2022/07/15 07:39:21;;;;;;;5.25;1.02;;;19.10;98.70;;;;;;7344478;19;108042;-81
2022/07/15 07:41:53;;;;;;;4.13;1.20;;;19.10;99.10;;;;;;7341927;19;108378;-82
2022/07/15 07:44:20;;;;;;;6.28;1.08;;;19.40;99.30;;;;;;7344329;19;107169;-81
2022/07/15 07:46:48;;;;;;;6.90;1.10;;;19.70;98.80;;;;;;7347204;19;107274;-81
2022/07/15 07:49:15;;;;;;;4.75;1.15;;;19.80;98.50;;;;;;7342905;19;108951;-80
2022/07/15 07:52:01;;;;;;;10.02;1.10;;;20.00;98.70;;;;;;7343027;19;107094;-80
2022/07/15 07:54:29;;;;;;;4.85;1.20;;;20.30;98.80;;;;;;7343091;19;108178;-80
2022/07/15 07:56:56;;;;;;;3.78;1.17;;;20.50;98.00;;;;;;7343913;19;108948;-80
2022/07/15 07:59:23;;;;;;;4.65;1.10;;;20.70;97.70;;;;;;7340774;19;107153;-80
2022/07/15 08:01:51;;;;;;;6.22;1.23;;;20.70;97.30;;;;;;7343664;19;108164;-80
2022/07/15 08:04:19;;;;;;;5.25;1.00;;;20.80;97.70;;;;;;7342816;19;108874;-80
2022/07/15 08:06:46;;;;;;;21.05;1.50;;;20.90;97.80;;;;;;7347722;19;108344;-80
2022/07/15 08:09:13;;;;;;;8.57;1.50;;;21.00;97.10;;;;;;7344528;19;109181;-80
2022/07/15 08:11:40;;;;;;;4.03;1.13;;;20.90;96.90;;;;;;7343695;19;108210;-80
2022/07/15 08:14:07;;;;;;;2.88;1.08;;;20.70;96.80;;;;;;7343338;19;108274;-80
2022/07/15 08:16:34;;;;;;;6.45;1.20;;;20.40;96.50;;;;;;7343683;19;108967;-80
2022/07/15 08:19:02;;;;;;;5.18;1.40;;;20.30;96.80;;;;;;7343585;19;107927;-81
2022/07/15 08:21:29;;;;;;;5.95;1.63;;;20.30;97.10;;;;;;7343511;19;108876;-81
2022/07/15 08:23:56;;;;;;;4.07;0.90;;;20.40;97.40;;;;;;7341264;19;109402;-80
2022/07/15 08:26:23;;;;;;;4.95;1.05;;;20.60;96.80;;;;;;7343055;19;107959;-80
2022/07/15 08:28:51;;;;;;;3.60;0.90;;;20.80;96.30;;;;;;7348962;19;108199;-80
2022/07/15 08:31:35;;;;;;;5.65;0.70;;;20.80;95.80;;;;;;7343204;19;111677;-80
2022/07/15 08:34:05;;;;;;;3.17;0.80;;;20.90;95.70;;;;;;7341068;19;108287;-80
2022/07/15 08:36:32;;;;;;;7.10;1.00;;;21.00;96.00;;;;;;7341668;19;109229;-80
2022/07/15 08:39:00;;;;;;;5.55;0.77;;;21.10;96.00;;;;;;7341465;19;107907;-80
2022/07/15 08:41:29;;;;;;;5.45;0.88;;;21.20;95.30;;;;;;7343742;19;108185;-80
2022/07/15 08:43:56;;;;;;;4.80;0.85;;;21.20;95.80;;;;;;7343886;19;109083;-80
2022/07/15 08:46:26;;;;;;;4.22;1.00;;;21.30;95.70;;;;;;7341098;19;111534;-81
2022/07/15 08:48:58;;;;;;;4.18;0.98;;;21.40;94.30;;;;;;7341147;19;108435;-80
2022/07/15 08:51:26;;;;;;;5.57;0.80;;;21.30;94.80;;;;;;7347734;19;109034;-83
2022/07/15 08:53:55;;;;;;;2.97;0.90;;;21.30;94.70;;;;;;7338378;19;108279;-80
2022/07/15 08:56:23;;;;;;;3.40;0.75;;;21.30;94.30;;;;;;7342624;19;108386;-80
2022/07/15 08:58:50;;;;;;;5.80;0.90;;;21.30;93.90;;;;;;7341375;19;108034;-80
2022/07/15 09:01:31;;;;;;;5.65;0.80;;;21.30;94.50;;;;;;7341567;19;108291;-81
2022/07/15 09:03:59;;;;;;;2.72;0.50;;;21.50;94.70;;;;;;7342779;19;109025;-81
2022/07/15 09:06:32;;;;;;;7.68;1.00;;;21.60;95.00;;;;;;7339913;19;107524;-81
2022/07/15 09:09:19;;;;;;;3.13;0.80;;;21.70;94.30;;;;;;7341615;19;108186;-82
2022/07/15 09:12:07;;;;;;;10.70;1.37;;;21.70;93.10;;;;;;7341437;19;108929;-81
2022/07/15 09:14:42;;;;;;;5.80;1.00;;;21.50;93.10;;;;;;7345819;19;108454;-82
2022/07/15 09:17:10;;;;;;;5.10;0.70;;;21.40;93.50;;;;;;7340225;19;108941;-82
2022/07/15 09:20:08;;;;;;;1.95;0.50;;;21.50;94.00;;;;;;7341517;19;108342;-82
2022/07/15 09:22:56;;;;;;;4.22;0.63;;;21.70;93.30;;;;;;7342898;19;111570;-82
2022/07/15 09:25:24;;;;;;;;;;;21.90;93.40;;;;;;7342309;19;109217;-82
2022/07/15 09:27:52;;;;;;;4.88;0.45;;;22.00;94.00;;;;;;7342424;19;111704;-82
2022/07/15 09:36:11;;;;;;;4.93;0.60;;;22.30;92.40;;;;;;7341426;19;108467;-84
2022/07/15 09:38:41;;;;;;;8.40;0.80;;;22.40;93.10;;;;;;7345317;19;108583;-83
2022/07/15 09:41:12;;;;;;;3.15;0.70;;;22.60;92.40;;;;;;7342009;19;109921;-84
2022/07/15 09:43:49;;;;;;;5.80;1.15;;;22.80;92.30;;;;;;7341155;19;108720;-81
2022/07/15 09:46:17;;;;;;;3.50;0.60;;;22.90;91.10;;;;;;7341276;19;108988;-82
2022/07/15 09:48:47;;;;;;;2.95;0.50;;;22.90;91.40;;;;;;7341062;19;109547;-81
2022/07/15 09:51:15;;;;;;;4.40;0.52;;;23.00;91.50;;;;;;7341574;19;108252;-82
2022/07/15 09:53:43;;;;;;;2.85;0.90;;;23.20;91.90;;;;;;7340159;19;109066;-84
2022/07/15 09:56:14;;;;;;;4.35;0.68;;;23.40;91.80;;;;;;7340403;19;110743;-81
2022/07/15 09:58:43;;;;;;;1.27;0.50;;;23.60;91.60;;;;;;7346515;19;107694;-82
2022/07/15 10:01:12;;;;;;;2.50;0.50;;;23.50;90.60;;;;;;7341876;19;107892;-82
2022/07/15 10:03:40;;;;;;;3.63;0.65;;;23.60;89.90;;;;;;7343800;19;109454;-81
2022/07/15 10:06:09;;;;;;;2.08;0.65;;;23.40;90.00;;;;;;7347246;19;109288;-81
2022/07/15 10:08:36;;;;;;;2.25;0.50;;;23.50;90.50;;;;;;7348134;19;107462;-82
2022/07/15 10:11:09;;;;;;;3.17;0.50;;;23.60;88.10;;;;;;7347980;19;107258;-82
2022/07/15 10:13:48;;;;;;;5.57;0.55;;;23.30;85.60;;;;;;7347508;19;108110;-81
2022/07/15 10:16:51;;;;;;;3.42;0.52;;;23.20;89.50;;;;;;7348260;19;107897;-83
2022/07/15 10:19:41;;;;;;;2.38;0.50;;;23.40;88.70;;;;;;7347480;19;108150;-86
2022/07/15 10:22:40;;;;;;;3.38;0.50;;;23.60;88.80;;;;;;7353147;19;109197;-85
2022/07/15 10:25:13;;;;;;;3.58;0.50;;;23.80;89.00;;;;;;7346282;19;108209;-86
2022/07/15 10:28:03;;;;;;;2.10;0.50;;;24.00;85.90;;;;;;7343024;19;109490;-87
2022/07/15 10:30:30;;;;;;;2.58;0.43;;;24.00;87.60;;;;;;7348273;19;107911;-87
2022/07/15 10:33:03;;;;;;;4.53;0.68;;;24.20;88.00;;;;;;7345655;19;108174;-87
2022/07/15 10:35:51;;;;;;;2.97;0.45;;;24.30;85.60;;;;;;7345379;19;108821;-83
2022/07/15 10:38:30;;;;;;;2.78;0.50;;;24.30;87.10;;;;;;7344862;19;108043;-88
2022/07/15 10:41:08;;;;;;;4.72;0.50;;;24.40;86.10;;;;;;7345518;19;108688;-87
2022/07/15 10:43:40;;;;;;;2.85;0.40;;;24.30;86.80;;;;;;7346987;19;108858;-83
2022/07/15 10:46:19;;;;;;;2.60;0.50;;;24.30;86.40;;;;;;7352559;19;108974;-82
2022/07/15 10:49:12;;;;;;;4.68;0.50;;;24.20;86.10;;;;;;7346730;19;108999;-81
2022/07/15 10:51:40;;;;;;;1.17;0.40;;;24.10;84.00;;;;;;7347699;19;107926;-82
2022/07/15 10:54:07;;;;;;;1.67;0.60;;;24.00;85.20;;;;;;7346474;19;108143;-81
2022/07/15 10:56:45;;;;;;;1.33;0.40;;;24.00;82.10;;;;;;7347121;19;109075;-83
2022/07/15 10:59:21;;;;;;;4.13;0.40;;;24.10;82.60;;;;;;7346409;19;107907;-84
2022/07/15 11:02:00;;;;;;;4.60;0.70;;;24.20;83.20;;;;;;7344087;19;108393;-83
2022/07/15 11:04:29;;;;;;;2.50;0.57;;;24.30;82.00;;;;;;7344852;19;108905;-85
2022/07/15 11:07:03;;;;;;;1.70;0.40;;;24.30;81.00;;;;;;7344716;19;107954;-84
2022/07/15 11:09:48;;;;;;;2.45;0.50;;;24.30;81.60;;;;;;7348276;19;108145;-83
2022/07/15 11:12:18;;;;;;;2.50;0.40;;;24.30;79.60;;;;;;7342315;19;108261;-84
2022/07/15 11:14:50;;;;;;;2.83;0.40;;;24.20;82.40;;;;;;7340423;19;108550;-86
2022/07/15 11:17:22;;;;;;;1.55;0.50;;;24.30;83.10;;;;;;7343816;19;108959;-85
2022/07/15 11:19:52;;;;;;;4.90;0.43;;;24.40;83.90;;;;;;7344118;19;108714;-86
2022/07/15 11:22:20;;;;;;;3.38;0.30;;;24.50;83.30;;;;;;7345870;19;109359;-84
2022/07/15 11:24:49;;;;;;;3.45;0.60;;;24.70;83.60;;;;;;7343476;19;109351;-84
2022/07/15 11:27:16;;;;;;;1.35;0.32;;;24.90;83.60;;;;;;7341799;19;108234;-85
2022/07/15 11:30:03;;;;;;;2.28;0.60;;;25.20;80.90;;;;;;7344162;19;108069;-82
2022/07/15 11:32:33;;;;;;;2.00;0.50;;;25.20;81.30;;;;;;7349299;19;109194;-82
2022/07/15 11:35:04;;;;;;;7.05;0.80;;;25.10;79.80;;;;;;7341692;19;108630;-82
2022/07/15 11:37:36;;;;;;;3.90;0.40;;;24.90;78.20;;;;;;7344614;19;108822;-82
2022/07/15 11:40:11;;;;;;;166.35;8.25;;;24.80;81.20;;;;;;7343111;19;108429;-82
2022/07/15 11:45:37;;;;;;;8.13;0.73;;;24.80;79.30;;;;;;7343222;19;109271;-82
2022/07/15 11:48:08;;;;;;;2.58;0.60;;;24.70;79.60;;;;;;7344891;19;108612;-82
2022/07/15 11:50:37;;;;;;;5.38;0.60;;;24.80;80.00;;;;;;7344980;19;108821;-82
2022/07/15 11:53:14;;;;;;;4.78;0.52;;;24.60;79.10;;;;;;7344490;19;109373;-83
2022/07/15 11:55:51;;;;;;;4.18;0.55;;;24.50;79.90;;;;;;7347651;19;108603;-85
2022/07/15 11:58:38;;;;;;;;;;;24.60;79.20;;;;;;7342022;19;109339;-83
2022/07/15 12:01:12;;;;;;;3.42;0.88;;;24.60;80.20;;;;;;7346634;19;108604;-84
2022/07/15 12:04:00;;;;;;;3.53;0.50;;;24.80;80.10;;;;;;7342447;19;108273;-82
2022/07/15 12:06:32;;;;;;;1.95;0.35;;;24.80;76.40;;;;;;7343689;19;108899;-83
2022/07/15 12:09:03;;;;;;;1.38;0.50;;;24.80;77.40;;;;;;7343510;19;108029;-83
2022/07/15 12:11:32;;;;;;;4.70;0.50;;;24.80;78.80;;;;;;7343514;19;110394;-82
2022/07/15 12:14:07;;;;;;;2.78;0.77;;;24.80;78.10;;;;;;7343003;19;107790;-81
2022/07/15 12:16:51;;;;;;;3.28;0.68;;;24.90;77.50;;;;;;7344071;19;107869;-86
2022/07/15 12:19:20;;;;;;;8.80;0.70;;;24.90;77.60;;;;;;7344140;19;109877;-81
2022/07/15 12:21:49;;;;;;;2.33;0.50;;;24.90;77.40;;;;;;7343541;19;107907;-81
2022/07/15 12:24:25;;;;;;;2.30;0.50;;;25.00;77.70;;;;;;7342317;19;108442;-81
2022/07/15 12:26:52;;;;;;;4.18;0.45;;;25.00;76.80;;;;;;7340437;19;108839;-81
2022/07/15 12:29:23;;;;;;;1.75;0.40;;;24.90;76.20;;;;;;7341178;19;110082;-81
2022/07/15 12:32:09;;;;;;;2.35;0.40;;;24.80;77.50;;;;;;7341387;19;108300;-82
2022/07/15 12:34:53;;;;;;;3.78;0.45;;;24.90;78.90;;;;;;7336417;19;108772;-82
2022/07/15 12:37:43;;;;;;;11.20;0.68;;;25.00;77.80;;;;;;7341104;19;107659;-81
2022/07/15 12:40:13;;;;;;;3.35;0.30;;;24.90;76.10;;;;;;7344945;19;108326;-82
2022/07/15 12:42:49;;;;;;;6.18;0.90;;;24.70;76.80;;;;;;7343011;19;110592;-82
2022/07/15 12:45:36;;;;;;;2.10;0.30;;;24.80;78.00;;;;;;7336870;19;108100;-81
2022/07/15 12:48:08;;;;;;;1.95;0.40;;;25.00;77.20;;;;;;7341556;19;110496;-81
2022/07/15 12:50:56;;;;;;;3.08;0.43;;;25.30;79.40;;;;;;7339856;19;108288;-81
2022/07/15 12:53:26;;;;;;;0.88;0.30;;;25.40;74.20;;;;;;7339396;19;107516;-81
2022/07/15 12:55:59;;;;;;;2.80;0.70;;;25.50;74.40;;;;;;7337938;19;108370;-81
2022/07/15 12:58:29;;;;;;;3.85;0.77;;;25.60;76.10;;;;;;7338610;19;107930;-81
2022/07/15 13:01:07;;;;;;;9.63;0.73;;;25.70;73.40;;;;;;7337978;19;108353;-81